Time;durP1;ratioP1;P1;durP2;ratioP2;P2;SDS_P1;SDS_P2;PMS_P1;PMS_P2;Temp;Humidity;BMP_temperature;BMP_pressure;BME280_temperature;BME280_humidity;BME280_pressure;Samples;Min_cycle;Max_cycle;Signal;HPM_P1;HPM_P2
2023/01/05 00:01:24;;;;;;;17.37;3.40;;;19.90;70.30;;;;;;5050896;28;20194;-69
2023/01/05 00:03:51;;;;;;;13.63;3.30;;;19.90;69.40;;;;;;5051855;28;20195;-69
2023/01/05 00:06:28;;;;;;;14.27;2.93;;;20.00;69.10;;;;;;5050952;28;20550;-68
2023/01/05 00:08:55;;;;;;;11.23;3.30;;;20.10;66.80;;;;;;5048462;28;20178;-70
2023/01/05 00:22:44;;;;;;;15.53;3.07;;;20.70;64.40;;;;;;5049740;28;20238;-69
2023/01/05 00:25:22;;;;;;;21.00;3.60;;;20.70;64.40;;;;;;5042043;28;20186;-68
2023/01/05 00:27:52;;;;;;;14.50;3.37;;;20.70;63.50;;;;;;5045830;28;20184;-68
2023/01/05 00:30:28;;;;;;;10.47;2.90;;;20.80;63.50;;;;;;5048602;28;20223;-68
2023/01/05 00:32:56;;;;;;;15.60;3.20;;;20.80;61.90;;;;;;5045706;28;20216;-70
2023/01/05 00:35:23;;;;;;;14.67;3.10;;;21.00;61.50;;;;;;5038820;28;20172;-70
2023/01/05 00:37:51;;;;;;;18.27;3.40;;;21.30;61.50;;;;;;5042344;28;20211;-69
2023/01/05 00:40:20;;;;;;;13.23;3.50;;;21.00;61.90;;;;;;5045281;28;20238;-69
2023/01/05 00:42:48;;;;;;;14.40;3.33;;;20.90;61.80;;;;;;5042302;28;20188;-66
2023/01/05 00:45:17;;;;;;;12.67;2.70;;;21.10;61.40;;;;;;5043780;28;20259;-68
2023/01/05 00:47:45;;;;;;;15.00;3.40;;;21.30;61.00;;;;;;5050487;28;20186;-70
2023/01/05 00:50:15;;;;;;;15.10;2.90;;;21.40;60.70;;;;;;5044357;28;20635;-70
2023/01/05 00:52:43;;;;;;;11.73;2.97;;;21.50;59.00;;;;;;5044403;28;20309;-68
2023/01/05 00:55:11;;;;;;;13.53;3.00;;;21.50;59.50;;;;;;5049312;28;20180;-69
2023/01/05 00:57:39;;;;;;;16.00;3.20;;;21.40;58.90;;;;;;5048397;28;20662;-68
2023/01/05 01:00:10;;;;;;;17.40;3.37;;;21.50;59.60;;;;;;5045106;28;20621;-69
2023/01/05 01:02:37;;;;;;;15.40;3.53;;;21.30;60.30;;;;;;5049143;28;20189;-68
2023/01/05 01:05:06;;;;;;;17.53;3.80;;;21.20;61.80;;;;;;5053362;28;20728;-70
2023/01/05 01:07:33;;;;;;;17.23;3.50;;;21.30;62.60;;;;;;5050322;28;20704;-70
2023/01/05 01:10:01;;;;;;;18.37;3.80;;;21.10;63.10;;;;;;5053896;28;20184;-70
2023/01/05 01:12:28;;;;;;;16.57;3.67;;;20.80;62.70;;;;;;5052675;28;20235;-68
2023/01/05 01:14:55;;;;;;;16.90;3.30;;;20.80;62.80;;;;;;5050327;28;20506;-69
2023/01/05 01:17:23;;;;;;;10.23;2.83;;;20.90;62.10;;;;;;5043814;28;20189;-70
2023/01/05 01:19:50;;;;;;;12.23;3.43;;;21.20;62.30;;;;;;5041120;28;20188;-69
2023/01/05 01:22:18;;;;;;;15.07;3.27;;;21.30;62.50;;;;;;5054078;28;20242;-69
2023/01/05 01:24:45;;;;;;;12.23;3.00;;;21.30;62.80;;;;;;5054997;28;20237;-69
2023/01/05 01:27:13;;;;;;;21.17;3.53;;;21.50;62.50;;;;;;5054558;28;20196;-69
2023/01/05 01:29:40;;;;;;;12.93;3.27;;;21.70;62.30;;;;;;5055059;28;20685;-68
2023/01/05 01:32:08;;;;;;;15.47;3.87;;;21.70;62.30;;;;;;5054905;28;20219;-69
2023/01/05 01:34:35;;;;;;;20.80;3.37;;;21.70;62.50;;;;;;5055340;28;20184;-68
2023/01/05 01:37:03;;;;;;;19.40;3.73;;;21.80;62.70;;;;;;5055391;28;20183;-68
2023/01/05 01:39:30;;;;;;;19.70;3.83;;;21.50;61.60;;;;;;5055147;28;20334;-68
2023/01/05 01:41:57;;;;;;;15.03;3.10;;;21.30;61.90;;;;;;5055303;28;20191;-70
2023/01/05 01:44:49;;;;;;;10.07;3.27;;;21.20;61.10;;;;;;5055505;28;20251;-69
2023/01/05 01:47:56;;;;;;;13.77;3.37;;;21.20;60.50;;;;;;5054638;28;20191;-71
2023/01/05 01:50:30;;;;;;;15.90;4.17;;;21.30;60.00;;;;;;5054541;28;20195;-70
2023/01/05 01:53:20;;;;;;;19.00;3.80;;;22.00;59.30;;;;;;5055152;28;20236;-69
2023/01/05 01:55:48;;;;;;;13.50;2.90;;;22.40;58.20;;;;;;5054700;28;20191;-71
2023/01/05 01:58:18;;;;;;;14.30;3.03;;;22.40;56.90;;;;;;5055015;28;20187;-70
2023/01/05 02:00:47;;;;;;;13.93;2.53;;;22.40;57.00;;;;;;5054971;28;20267;-70
2023/01/05 02:03:15;;;;;;;15.00;3.30;;;22.30;56.90;;;;;;5054187;28;20180;-71
2023/01/05 02:05:42;;;;;;;18.00;3.27;;;22.30;58.40;;;;;;5054896;28;20182;-70
2023/01/05 02:08:15;;;;;;;18.30;3.83;;;22.10;57.20;;;;;;5054985;28;20184;-70
2023/01/05 02:10:54;;;;;;;16.40;3.53;;;22.00;58.50;;;;;;5054758;28;20732;-69
2023/01/05 02:13:34;;;;;;;12.27;2.97;;;22.40;57.60;;;;;;5053055;28;20638;-72
2023/01/05 02:16:17;;;;;;;13.77;3.13;;;23.10;55.70;;;;;;5054527;28;20175;-70
2023/01/05 02:19:22;;;;;;;16.40;3.00;;;23.20;55.70;;;;;;5052395;28;20219;-69
2023/01/05 02:22:18;;;;;;;19.73;3.50;;;22.90;57.30;;;;;;5034507;28;20283;-70
2023/01/05 02:24:57;;;;;;;16.10;3.17;;;22.80;57.80;;;;;;5032797;28;20238;-70
2023/01/05 02:27:52;;;;;;;16.97;3.30;;;22.40;59.20;;;;;;5034472;28;20173;-69
2023/01/05 02:30:59;;;;;;;15.03;3.03;;;22.80;57.90;;;;;;5034773;28;20510;-70
2023/01/05 02:33:53;;;;;;;19.03;3.87;;;22.60;57.60;;;;;;5033942;28;20191;-70
2023/01/05 02:36:29;;;;;;;19.07;3.37;;;22.30;59.50;;;;;;5043642;28;20203;-69
2023/01/05 02:39:16;;;;;;;17.70;3.30;;;22.30;61.10;;;;;;5050758;28;20672;-69
2023/01/05 02:41:56;;;;;;;12.73;2.93;;;22.20;60.00;;;;;;5054039;28;20211;-72
2023/01/05 02:44:26;;;;;;;12.57;2.73;;;22.20;60.00;;;;;;5054208;28;20167;-71
2023/01/05 02:47:28;;;;;;;14.57;3.10;;;22.60;58.40;;;;;;5053247;28;20179;-72
2023/01/05 02:50:05;;;;;;;15.43;3.93;;;22.80;56.10;;;;;;5045896;28;20595;-71
2023/01/05 02:53:24;;;;;;;15.73;3.20;;;22.30;58.70;;;;;;5053704;28;20229;-69
2023/01/05 02:56:15;;;;;;;23.63;3.37;;;22.00;60.80;;;;;;5027967;28;20626;-72
2023/01/05 02:58:50;;;;;;;17.07;4.30;;;22.20;61.60;;;;;;5053833;28;20179;-69
2023/01/05 03:01:26;;;;;;;18.93;3.37;;;22.00;60.90;;;;;;5053026;28;20207;-69
2023/01/05 03:04:04;;;;;;;12.67;3.10;;;21.90;60.50;;;;;;5052297;28;20172;-70
2023/01/05 03:06:45;;;;;;;17.00;3.70;;;22.50;59.80;;;;;;5053753;28;20172;-70
2023/01/05 03:09:16;;;;;;;18.43;3.80;;;22.80;58.20;;;;;;5044917;28;20188;-71
2023/01/05 03:15:11;;;;;;;20.43;3.30;;;22.20;60.70;;;;;;5053252;28;20187;-69
2023/01/05 03:17:48;;;;;;;17.07;3.37;;;21.70;62.10;;;;;;5040040;28;20176;-71
2023/01/05 03:20:20;;;;;;;17.50;3.50;;;21.90;61.30;;;;;;5053552;28;20187;-69
2023/01/05 03:37:32;;;;;;;11.97;3.40;;;23.60;56.10;;;;;;5047517;28;20187;-69
2023/01/05 03:40:01;;;;;;;11.43;2.63;;;23.10;55.90;;;;;;5033741;28;20180;-70
2023/01/05 03:42:30;;;;;;;9.63;2.40;;;23.40;55.70;;;;;;5050969;28;20240;-71
2023/01/05 03:44:58;;;;;;;14.00;3.03;;;23.60;54.30;;;;;;5052810;28;20187;-70
2023/01/05 03:47:26;;;;;;;14.60;3.20;;;22.90;56.80;;;;;;5051650;28;20306;-70
2023/01/05 03:49:53;;;;;;;14.60;2.60;;;22.90;57.90;;;;;;5052746;28;20688;-69
2023/01/05 03:52:20;;;;;;;16.57;3.50;;;23.50;55.70;;;;;;5052743;28;20215;-69
2023/01/05 03:54:48;;;;;;;15.63;2.90;;;23.30;56.80;;;;;;5052869;28;20168;-70
2023/01/05 03:57:15;;;;;;;16.97;2.60;;;23.20;56.60;;;;;;5052499;28;20179;-71
2023/01/05 03:59:42;;;;;;;9.93;2.57;;;23.60;54.20;;;;;;5052872;28;20171;-71
2023/01/05 04:02:09;;;;;;;14.27;2.83;;;23.80;54.30;;;;;;5053164;28;20180;-71
2023/01/05 04:04:37;;;;;;;12.30;3.00;;;23.60;54.80;;;;;;5052672;28;20177;-70
2023/01/05 04:07:06;;;;;;;10.03;3.00;;;23.60;53.40;;;;;;5052799;28;20179;-71
2023/01/05 04:09:33;;;;;;;12.10;2.93;;;23.50;54.90;;;;;;5051325;28;20606;-73
2023/01/05 04:12:01;;;;;;;18.73;3.47;;;24.20;53.60;;;;;;5052894;28;20650;-71
2023/01/05 04:14:28;;;;;;;12.60;2.73;;;24.20;53.30;;;;;;5040770;28;20188;-71
2023/01/05 04:16:55;;;;;;;15.83;3.07;;;24.40;52.00;;;;;;5052530;28;20198;-68
2023/01/05 04:19:23;;;;;;;12.67;3.13;;;23.90;53.60;;;;;;5049201;28;20650;-71
2023/01/05 04:21:50;;;;;;;18.33;3.10;;;24.00;54.30;;;;;;5045127;28;20267;-71
2023/01/05 04:24:17;;;;;;;9.37;2.57;;;24.60;52.30;;;;;;5048036;28;20177;-70
2023/01/05 04:26:44;;;;;;;13.50;2.63;;;23.90;53.10;;;;;;5045188;28;20192;-70
2023/01/05 04:29:12;;;;;;;16.10;3.23;;;23.20;54.90;;;;;;5051596;28;20176;-71
2023/01/05 04:31:39;;;;;;;18.50;3.37;;;22.60;57.80;;;;;;5051588;28;20200;-70
2023/01/05 04:34:07;;;;;;;17.93;3.70;;;22.60;58.90;;;;;;5050667;28;20191;-72
2023/01/05 04:36:34;;;;;;;17.47;3.10;;;22.40;58.50;;;;;;5054395;28;20199;-70
2023/01/05 04:39:01;;;;;;;11.70;3.03;;;22.20;60.50;;;;;;5055928;28;20172;-69
2023/01/05 04:41:29;;;;;;;18.67;3.63;;;21.70;66.40;;;;;;5055742;28;20198;-69
2023/01/05 04:43:57;;;;;;;16.67;3.60;;;21.30;66.90;;;;;;5054311;28;20172;-70
2023/01/05 04:46:24;;;;;;;17.07;3.57;;;20.80;71.00;;;;;;5042702;28;20174;-70
2023/01/05 04:48:51;;;;;;;19.17;3.50;;;20.50;75.00;;;;;;5055956;28;20172;-74
2023/01/05 04:51:18;;;;;;;22.77;4.00;;;20.20;80.70;;;;;;5053135;28;20233;-73
2023/01/05 04:53:46;;;;;;;17.20;3.63;;;20.00;82.60;;;;;;5054050;28;20190;-72
2023/01/05 04:56:13;;;;;;;24.27;4.00;;;19.80;81.90;;;;;;5055398;28;20203;-71
2023/01/05 04:58:41;;;;;;;17.83;4.03;;;19.70;81.10;;;;;;5056505;28;20176;-70
2023/01/05 05:01:08;;;;;;;17.20;3.20;;;19.50;79.60;;;;;;5052813;28;20230;-69
2023/01/05 05:03:36;;;;;;;21.30;3.77;;;19.50;79.20;;;;;;5054802;28;20191;-71
2023/01/05 05:06:03;;;;;;;15.33;3.70;;;19.60;77.80;;;;;;5043895;28;20637;-71
2023/01/05 05:08:30;;;;;;;19.27;3.63;;;19.80;78.00;;;;;;5046367;28;20200;-70
2023/01/05 05:10:58;;;;;;;13.00;3.33;;;19.90;76.00;;;;;;5053079;28;20613;-70
2023/01/05 05:13:26;;;;;;;17.67;3.50;;;19.70;74.70;;;;;;5048498;28;20199;-71
2023/01/05 05:15:53;;;;;;;12.40;2.77;;;19.70;72.80;;;;;;5046827;28;20263;-71
2023/01/05 05:18:21;;;;;;;11.43;2.57;;;19.90;70.20;;;;;;5048363;28;20184;-70
2023/01/05 05:20:51;;;;;;;18.80;3.70;;;20.20;70.50;;;;;;5064008;28;20211;-71
2023/01/05 05:23:19;;;;;;;11.63;2.87;;;20.60;70.30;;;;;;5053497;28;20194;-71
2023/01/05 05:25:50;;;;;;;15.50;2.33;;;20.60;70.60;;;;;;5058477;28;20180;-72
2023/01/05 05:28:18;;;;;;;13.40;3.00;;;20.10;71.50;;;;;;5054904;28;20199;-71
2023/01/05 05:30:47;;;;;;;20.07;3.40;;;19.80;72.70;;;;;;5055383;28;20192;-70
2023/01/05 05:33:14;;;;;;;13.63;3.13;;;19.80;73.00;;;;;;5055135;28;20650;-70
2023/01/05 05:35:42;;;;;;;16.03;3.83;;;19.70;74.00;;;;;;5053837;28;20180;-71
2023/01/05 05:38:09;;;;;;;16.47;3.37;;;19.80;73.50;;;;;;5055218;28;20180;-70
2023/01/05 05:40:36;;;;;;;17.43;3.57;;;19.80;73.70;;;;;;5055169;28;20180;-70
2023/01/05 05:43:04;;;;;;;19.20;3.60;;;19.70;74.10;;;;;;5055767;28;20183;-72
2023/01/05 05:45:31;;;;;;;14.57;3.57;;;19.70;73.90;;;;;;5054753;28;20183;-70
2023/01/05 05:48:00;;;;;;;21.43;4.93;;;19.50;74.80;;;;;;5054870;28;20176;-69
2023/01/05 05:50:27;;;;;;;20.07;3.30;;;19.40;77.70;;;;;;5042095;28;20180;-70
2023/01/05 05:52:55;;;;;;;20.37;3.50;;;19.30;79.10;;;;;;5051910;28;20238;-72
2023/01/05 05:55:22;;;;;;;24.10;3.90;;;18.90;81.40;;;;;;5054022;28;20176;-72
2023/01/05 05:57:49;;;;;;;22.70;4.27;;;18.50;82.50;;;;;;5053713;28;20180;-70
2023/01/05 06:00:17;;;;;;;18.47;4.10;;;18.40;84.20;;;;;;5057883;28;20180;-71
2023/01/05 06:02:44;;;;;;;25.47;4.60;;;18.50;85.90;;;;;;5053768;28;20245;-71
2023/01/05 06:05:11;;;;;;;17.80;3.60;;;18.50;86.30;;;;;;5053849;28;20230;-73
2023/01/05 06:07:39;;;;;;;19.50;3.83;;;18.50;86.30;;;;;;5055081;28;20180;-72
2023/01/05 06:10:07;;;;;;;23.23;4.17;;;18.50;85.60;;;;;;5052334;28;20184;-72
2023/01/05 06:12:34;;;;;;;20.20;3.67;;;18.40;86.20;;;;;;5053329;28;20572;-72
2023/01/05 06:15:01;;;;;;;20.73;3.63;;;18.30;86.50;;;;;;5053277;28;20207;-72
2023/01/05 06:17:29;;;;;;;21.20;4.43;;;18.10;86.60;;;;;;5056888;28;20603;-68
2023/01/05 06:19:56;;;;;;;18.00;4.10;;;17.90;86.40;;;;;;5054134;28;20197;-71
2023/01/05 06:22:23;;;;;;;20.87;3.23;;;17.60;86.30;;;;;;5055048;28;20617;-71
2023/01/05 06:24:51;;;;;;;20.13;3.93;;;17.30;86.90;;;;;;5050983;28;20209;-71
2023/01/05 06:27:18;;;;;;;23.90;3.73;;;17.30;87.60;;;;;;5049677;28;20176;-72
2023/01/05 06:29:45;;;;;;;16.00;3.07;;;17.30;86.80;;;;;;5056105;28;20179;-71
2023/01/05 06:32:12;;;;;;;14.80;3.07;;;17.40;87.10;;;;;;5053524;28;20226;-72
2023/01/05 06:34:40;;;;;;;15.50;3.03;;;17.40;85.50;;;;;;5048689;28;20214;-73
2023/01/05 06:37:07;;;;;;;13.67;3.23;;;17.50;84.20;;;;;;5050442;28;20178;-73
2023/01/05 06:39:34;;;;;;;18.47;4.10;;;17.70;83.40;;;;;;5049557;28;20622;-72
2023/01/05 06:42:02;;;;;;;18.10;2.70;;;17.90;83.00;;;;;;5050712;28;20239;-73
2023/01/05 06:44:29;;;;;;;18.97;3.53;;;18.00;80.70;;;;;;5052648;28;20187;-73
2023/01/05 06:46:56;;;;;;;19.77;3.90;;;18.10;79.50;;;;;;5053842;28;20209;-71
2023/01/05 06:49:24;;;;;;;14.20;3.27;;;18.20;78.50;;;;;;5052931;28;20180;-71
2023/01/05 06:51:51;;;;;;;19.47;3.10;;;18.30;77.50;;;;;;5053356;28;20231;-73
2023/01/05 06:54:19;;;;;;;13.63;2.97;;;18.40;76.60;;;;;;5053338;28;20183;-72
2023/01/05 06:56:46;;;;;;;17.70;3.73;;;18.50;76.20;;;;;;5048145;28;20190;-71
2023/01/05 06:59:13;;;;;;;12.27;2.80;;;18.70;76.30;;;;;;5048841;28;20275;-71
2023/01/05 07:01:41;;;;;;;17.53;3.43;;;18.80;75.50;;;;;;5051709;28;20188;-70
2023/01/05 07:04:08;;;;;;;14.70;3.13;;;18.80;73.60;;;;;;5050907;28;20273;-70
2023/01/05 07:06:36;;;;;;;10.03;2.60;;;18.90;74.80;;;;;;5045812;28;20237;-70
2023/01/05 07:09:03;;;;;;;12.67;2.33;;;18.90;69.70;;;;;;5051217;28;20188;-71
2023/01/05 07:11:31;;;;;;;16.13;3.07;;;19.00;70.40;;;;;;5049733;28;20297;-70
2023/01/05 07:13:58;;;;;;;19.63;3.03;;;19.10;70.40;;;;;;5050894;28;20289;-71
2023/01/05 07:16:25;;;;;;;15.93;3.00;;;19.10;69.30;;;;;;5049822;28;20212;-71
2023/01/05 07:18:53;;;;;;;13.77;2.60;;;19.10;69.90;;;;;;5049430;28;20197;-73
2023/01/05 07:21:20;;;;;;;15.63;3.10;;;19.20;69.80;;;;;;5051781;28;20190;-71
2023/01/05 07:23:48;;;;;;;15.60;3.53;;;19.20;69.10;;;;;;5046657;28;20279;-71
2023/01/05 07:26:15;;;;;;;13.43;3.03;;;19.20;68.30;;;;;;5050400;28;20270;-72
2023/01/05 07:28:42;;;;;;;12.43;2.50;;;19.20;66.80;;;;;;5051640;28;20180;-71
2023/01/05 07:31:10;;;;;;;11.67;2.60;;;19.10;67.10;;;;;;5050545;28;20225;-72
2023/01/05 07:33:37;;;;;;;13.33;2.50;;;19.10;66.20;;;;;;5051534;28;20188;-70
2023/01/05 07:36:05;;;;;;;10.90;2.53;;;19.10;67.50;;;;;;5052103;28;20180;-70
2023/01/05 07:38:33;;;;;;;9.90;2.90;;;19.00;68.00;;;;;;5051724;28;20184;-70
2023/01/05 07:41:01;;;;;;;12.50;2.73;;;19.10;68.20;;;;;;5046841;28;20711;-70
2023/01/05 07:43:28;;;;;;;19.40;3.80;;;19.10;68.50;;;;;;5046853;28;20227;-72
2023/01/05 07:46:02;;;;;;;13.13;3.20;;;19.10;68.60;;;;;;5049799;28;20190;-72
2023/01/05 07:48:30;;;;;;;23.77;3.63;;;19.10;68.10;;;;;;5051580;28;20199;-70
2023/01/05 07:51:04;;;;;;;13.13;2.27;;;19.10;67.20;;;;;;5051788;28;20180;-71
2023/01/05 07:53:33;;;;;;;12.50;2.97;;;19.10;66.70;;;;;;5052607;28;20175;-70
2023/01/05 07:56:01;;;;;;;9.50;2.97;;;19.10;67.10;;;;;;5052243;28;20660;-70
2023/01/05 07:58:29;;;;;;;10.53;3.67;;;19.20;66.80;;;;;;5052345;28;20179;-71
2023/01/05 08:00:57;;;;;;;13.27;3.20;;;19.20;66.90;;;;;;5035148;28;20252;-72
2023/01/05 08:03:24;;;;;;;13.87;3.47;;;19.10;66.50;;;;;;5052019;28;20241;-70
2023/01/05 08:05:51;;;;;;;9.13;2.27;;;19.10;67.10;;;;;;5051878;28;20191;-72
2023/01/05 08:08:19;;;;;;;11.77;2.27;;;19.10;68.00;;;;;;5052388;28;20186;-69
2023/01/05 08:10:46;;;;;;;18.13;3.07;;;19.00;68.80;;;;;;5051471;28;20558;-71
2023/01/05 08:15:59;;;;;;;10.07;2.60;;;18.90;69.00;;;;;;5050873;28;20222;-71
2023/01/05 08:18:27;;;;;;;15.20;2.57;;;18.90;68.40;;;;;;5050272;28;20183;-72
2023/01/05 08:20:59;;;;;;;12.67;2.67;;;18.80;68.50;;;;;;5049780;28;20188;-70
2023/01/05 08:23:27;;;;;;;12.00;2.70;;;18.80;68.50;;;;;;5048925;28;20238;-70
2023/01/05 08:25:55;;;;;;;14.07;2.93;;;18.80;69.60;;;;;;5051174;28;20184;-70
2023/01/05 08:28:24;;;;;;;13.13;2.70;;;18.80;69.30;;;;;;5049610;28;20183;-69
2023/01/05 08:30:51;;;;;;;12.90;2.97;;;18.80;68.90;;;;;;5047112;28;20187;-73
2023/01/05 08:33:19;;;;;;;12.90;2.93;;;18.80;69.30;;;;;;5049095;28;20271;-72
2023/01/05 08:35:46;;;;;;;12.27;2.93;;;18.80;68.20;;;;;;5044546;28;20254;-71
2023/01/05 08:38:13;;;;;;;10.07;2.70;;;18.80;67.50;;;;;;5051389;28;20668;-69
2023/01/05 08:40:41;;;;;;;12.03;2.67;;;18.70;68.00;;;;;;5047912;28;20182;-69
2023/01/05 08:43:08;;;;;;;22.40;3.90;;;18.80;68.30;;;;;;5047098;28;20195;-70
2023/01/05 08:45:35;;;;;;;12.27;2.70;;;18.80;68.00;;;;;;5051431;28;20581;-70
2023/01/05 08:48:02;;;;;;;10.90;2.57;;;18.70;68.30;;;;;;5048204;28;20233;-71
2023/01/05 08:50:30;;;;;;;14.77;2.87;;;18.70;68.10;;;;;;5046951;28;20199;-73
2023/01/05 08:52:58;;;;;;;15.13;2.73;;;18.70;68.50;;;;;;5050737;28;20237;-73
2023/01/05 08:55:25;;;;;;;16.97;3.17;;;18.70;68.70;;;;;;5050033;28;20242;-71
2023/01/05 08:57:52;;;;;;;10.60;2.87;;;18.60;69.10;;;;;;5049751;28;20202;-71
2023/01/05 09:00:20;;;;;;;10.53;2.67;;;18.70;69.50;;;;;;5045887;28;20277;-71
2023/01/05 09:02:48;;;;;;;10.17;3.30;;;18.60;69.90;;;;;;5048610;28;20306;-69
2023/01/05 09:05:16;;;;;;;10.60;2.33;;;18.70;70.00;;;;;;5048895;28;20179;-72
2023/01/05 09:07:43;;;;;;;21.33;4.07;;;18.70;70.50;;;;;;5051686;28;20187;-70
2023/01/05 09:10:11;;;;;;;13.80;3.60;;;18.60;70.70;;;;;;5050331;28;20712;-71
2023/01/05 09:12:39;;;;;;;16.80;3.33;;;18.60;71.00;;;;;;5051140;28;20219;-71
2023/01/05 09:15:07;;;;;;;17.80;3.20;;;18.60;71.60;;;;;;5051579;28;20176;-70
2023/01/05 09:17:37;;;;;;;19.57;3.20;;;18.60;71.90;;;;;;5048595;28;20279;-71
2023/01/05 09:20:06;;;;;;;18.20;3.77;;;18.50;72.00;;;;;;5050798;28;20670;-70
2023/01/05 09:22:34;;;;;;;13.23;3.30;;;18.60;72.60;;;;;;5053148;28;20738;-70
2023/01/05 09:25:03;;;;;;;12.47;3.23;;;18.50;72.70;;;;;;5054395;28;20172;-71
2023/01/05 09:27:30;;;;;;;21.03;4.20;;;18.50;72.90;;;;;;5053916;28;20194;-71
2023/01/05 09:29:58;;;;;;;16.40;2.93;;;18.50;72.70;;;;;;5053789;28;20180;-71
2023/01/05 09:32:25;;;;;;;12.87;3.07;;;18.50;72.90;;;;;;5053404;28;20208;-72
2023/01/05 09:34:52;;;;;;;20.63;3.50;;;18.40;73.30;;;;;;5053789;28;20191;-70
2023/01/05 09:37:20;;;;;;;16.63;3.27;;;18.40;73.70;;;;;;5054203;28;20214;-70
2023/01/05 09:39:47;;;;;;;22.03;3.70;;;18.40;73.90;;;;;;5054548;28;20650;-71
2023/01/05 09:42:20;;;;;;;20.03;3.27;;;18.30;74.00;;;;;;5051335;28;20180;-69
2023/01/05 09:44:58;;;;;;;17.73;3.80;;;18.40;73.90;;;;;;5052820;28;20691;-69
2023/01/05 09:47:45;;;;;;;16.00;2.80;;;18.40;73.50;;;;;;5054627;28;20217;-69
2023/01/05 09:50:24;;;;;;;10.67;2.90;;;18.40;73.40;;;;;;5054221;28;20179;-72
2023/01/05 09:52:56;;;;;;;14.77;2.80;;;18.40;73.20;;;;;;5054313;28;20306;-69
2023/01/05 09:55:26;;;;;;;17.27;3.60;;;18.40;72.90;;;;;;5052156;28;20183;-70
2023/01/05 09:58:07;;;;;;;15.60;3.00;;;18.50;72.90;;;;;;5052605;28;20685;-70
2023/01/05 10:00:36;;;;;;;12.60;2.53;;;18.40;73.00;;;;;;5048275;28;20172;-70
2023/01/05 10:03:10;;;;;;;15.87;2.87;;;18.40;72.60;;;;;;5054566;28;20184;-72
2023/01/05 10:05:41;;;;;;;12.07;2.37;;;18.40;72.70;;;;;;5052860;28;20187;-70
2023/01/05 10:08:18;;;;;;;20.57;3.27;;;18.50;72.60;;;;;;5052397;28;20536;-70
2023/01/05 10:13:52;;;;;;;14.23;3.13;;;18.50;72.50;;;;;;5054482;28;20557;-71
2023/01/05 10:16:19;;;;;;;13.37;2.90;;;18.50;72.60;;;;;;5051818;28;20182;-70
2023/01/05 10:18:47;;;;;;;16.20;3.03;;;18.50;73.20;;;;;;5050504;28;20184;-71
2023/01/05 10:21:53;;;;;;;14.33;2.77;;;18.50;73.30;;;;;;5053720;28;20176;-71
2023/01/05 10:24:35;;;;;;;12.13;3.13;;;18.40;73.20;;;;;;5052735;28;20191;-69
2023/01/05 10:27:18;;;;;;;13.87;3.00;;;18.40;73.00;;;;;;5052694;28;20570;-72
2023/01/05 10:29:53;;;;;;;15.70;3.23;;;18.30;72.80;;;;;;5052756;28;20191;-70
2023/01/05 10:32:58;;;;;;;11.67;2.83;;;18.30;72.80;;;;;;5053453;28;20603;-72
2023/01/05 10:36:10;;;;;;;12.67;2.73;;;18.30;72.90;;;;;;5062270;28;20550;-72
2023/01/05 10:39:10;;;;;;;11.90;2.10;;;18.40;73.20;;;;;;5052383;28;20255;-70
2023/01/05 10:42:12;;;;;;;15.73;3.10;;;18.30;73.60;;;;;;5030079;28;20185;-70
2023/01/05 10:44:54;;;;;;;12.30;2.70;;;18.30;74.00;;;;;;5051697;28;20183;-70
2023/01/05 10:47:24;;;;;;;15.50;3.07;;;18.30;74.20;;;;;;5041872;28;20180;-69
2023/01/05 10:49:52;;;;;;;14.77;2.57;;;18.20;74.50;;;;;;5051561;28;20183;-69
2023/01/05 10:52:22;;;;;;;18.20;2.77;;;18.10;74.90;;;;;;5052885;28;20231;-71
2023/01/05 10:54:54;;;;;;;15.33;3.57;;;18.10;75.00;;;;;;5051250;28;20226;-70
2023/01/05 10:57:32;;;;;;;14.97;3.40;;;18.20;75.10;;;;;;5053089;28;20203;-70
2023/01/05 11:00:03;;;;;;;13.67;3.43;;;18.20;75.10;;;;;;5052907;28;20270;-70
2023/01/05 11:02:37;;;;;;;22.17;3.60;;;18.20;75.10;;;;;;5049232;28;20187;-71
2023/01/05 11:05:27;;;;;;;16.63;2.90;;;18.20;75.20;;;;;;5045684;28;20190;-71
2023/01/05 11:08:01;;;;;;;12.70;3.00;;;18.20;75.50;;;;;;5047519;28;20222;-71
2023/01/05 11:10:29;;;;;;;12.37;2.67;;;18.20;75.40;;;;;;5052775;28;20180;-69
2023/01/05 11:13:05;;;;;;;13.80;2.67;;;18.10;75.60;;;;;;5052470;28;20298;-72
2023/01/05 11:15:39;;;;;;;24.30;3.67;;;18.00;75.70;;;;;;5053268;28;20240;-69
2023/01/05 11:18:18;;;;;;;16.90;3.70;;;18.00;75.60;;;;;;5049168;28;20178;-70
2023/01/05 11:21:05;;;;;;;14.97;3.17;;;17.90;75.70;;;;;;5049358;28;20172;-70
2023/01/05 11:23:41;;;;;;;14.87;2.90;;;17.90;75.70;;;;;;5052642;28;20512;-72
2023/01/05 11:26:17;;;;;;;17.13;3.30;;;17.90;75.50;;;;;;5048635;28;20524;-71
2023/01/05 11:29:08;;;;;;;17.73;3.00;;;17.90;75.50;;;;;;5052302;28;20234;-69
2023/01/05 11:31:57;;;;;;;17.27;3.03;;;18.00;75.50;;;;;;5052790;28;20228;-69
2023/01/05 11:34:36;;;;;;;12.17;2.77;;;17.90;75.60;;;;;;5046926;28;20302;-69
2023/01/05 11:37:09;;;;;;;12.80;3.00;;;18.00;75.60;;;;;;5050221;28;20187;-71
2023/01/05 11:40:04;;;;;;;14.03;2.83;;;17.90;75.90;;;;;;5052291;28;20182;-72
2023/01/05 11:42:35;;;;;;;17.23;3.73;;;18.00;76.00;;;;;;5050737;28;20277;-71
2023/01/05 11:45:22;;;;;;;11.23;2.90;;;18.00;76.30;;;;;;5051978;28;20211;-71
2023/01/05 11:47:51;;;;;;;10.57;2.93;;;18.10;76.00;;;;;;5051224;28;20182;-69
2023/01/05 11:50:23;;;;;;;14.70;2.90;;;18.00;75.80;;;;;;5049077;28;20199;-71
2023/01/05 11:52:59;;;;;;;18.20;3.07;;;18.00;76.00;;;;;;5047304;28;20293;-73
2023/01/05 11:55:29;;;;;;;13.63;2.53;;;17.90;76.10;;;;;;5050869;28;20175;-72
2023/01/05 11:58:24;;;;;;;9.97;2.37;;;17.90;76.40;;;;;;5052066;28;20187;-72
2023/01/05 12:01:13;;;;;;;11.37;3.00;;;17.80;76.50;;;;;;5039389;28;20188;-69
2023/01/05 12:04:00;;;;;;;18.40;3.50;;;17.80;76.70;;;;;;5051722;28;20245;-72
2023/01/05 12:06:39;;;;;;;15.87;3.23;;;17.70;76.80;;;;;;5051396;28;20191;-69
2023/01/05 12:09:09;;;;;;;12.50;2.77;;;17.70;76.80;;;;;;5052627;28;20195;-70
2023/01/05 12:11:46;;;;;;;13.00;2.40;;;17.60;76.80;;;;;;5051762;28;20286;-70
2023/01/05 12:14:38;;;;;;;18.07;3.37;;;17.60;76.80;;;;;;5045809;28;20180;-71
2023/01/05 12:17:14;;;;;;;11.50;2.70;;;17.60;76.70;;;;;;5047919;28;20187;-70
2023/01/05 12:19:56;;;;;;;17.73;2.57;;;17.60;76.60;;;;;;5050277;28;20186;-71
2023/01/05 12:22:41;;;;;;;11.83;2.77;;;17.50;76.70;;;;;;5052232;28;20187;-71
2023/01/05 12:25:47;;;;;;;10.43;2.57;;;17.50;76.80;;;;;;5051872;28;20185;-70
2023/01/05 12:28:53;;;;;;;15.20;2.83;;;17.50;76.90;;;;;;5051935;28;20248;-70
2023/01/05 12:31:45;;;;;;;7.03;2.07;;;17.50;76.80;;;;;;5047740;28;20179;-71
2023/01/05 12:34:42;;;;;;;15.10;2.53;;;17.50;76.60;;;;;;5051546;28;20233;-70
2023/01/05 12:37:32;;;;;;;7.80;2.33;;;17.50;76.30;;;;;;5045245;28;20649;-70
2023/01/05 12:40:06;;;;;;;11.27;2.73;;;17.50;76.20;;;;;;5047704;28;20170;-71
2023/01/05 12:43:11;;;;;;;9.23;2.50;;;17.50;75.70;;;;;;5048500;28;20180;-69
2023/01/05 12:45:55;;;;;;;9.43;2.77;;;17.50;76.00;;;;;;5061568;28;20200;-73
2023/01/05 12:48:35;;;;;;;19.00;2.80;;;17.60;76.00;;;;;;5057451;28;20172;-71
2023/01/05 12:51:23;;;;;;;9.87;2.47;;;17.60;76.10;;;;;;5051329;28;20217;-69
2023/01/05 12:54:16;;;;;;;11.50;2.30;;;17.50;75.90;;;;;;5051954;28;20191;-71
2023/01/05 12:57:03;;;;;;;6.80;2.47;;;17.60;76.40;;;;;;5033785;28;20195;-70
2023/01/05 13:00:01;;;;;;;13.77;2.93;;;17.50;76.60;;;;;;5051550;28;20213;-73
2023/01/05 13:03:00;;;;;;;10.40;2.37;;;17.40;76.30;;;;;;5050459;28;20654;-71
2023/01/05 13:05:39;;;;;;;12.20;2.67;;;17.40;76.50;;;;;;5054787;28;20225;-71
2023/01/05 13:08:31;;;;;;;9.73;3.00;;;17.40;76.70;;;;;;5050891;28;20182;-69
2023/01/05 13:11:21;;;;;;;11.33;2.73;;;17.40;76.90;;;;;;5054763;28;20261;-71
2023/01/05 13:13:52;;;;;;;8.90;2.53;;;17.40;76.70;;;;;;5054337;28;20192;-70
2023/01/05 13:16:22;;;;;;;16.73;3.00;;;17.30;76.90;;;;;;5055401;28;20187;-71
2023/01/05 13:19:12;;;;;;;13.77;2.30;;;17.30;76.80;;;;;;5052756;28;20195;-72
2023/01/05 13:21:43;;;;;;;11.77;2.67;;;17.30;76.90;;;;;;5052523;28;20195;-72
2023/01/05 13:24:26;;;;;;;11.23;2.70;;;17.30;77.00;;;;;;5054621;28;20660;-72
2023/01/05 13:26:55;;;;;;;15.27;3.17;;;17.30;77.40;;;;;;5055198;28;20203;-71
2023/01/05 13:29:31;;;;;;;13.57;2.87;;;17.30;77.60;;;;;;5055222;28;20192;-71
2023/01/05 13:32:10;;;;;;;12.57;3.00;;;17.20;77.90;;;;;;5054701;28;20239;-73
2023/01/05 13:35:13;;;;;;;11.53;3.07;;;17.30;78.20;;;;;;5048804;28;20172;-72
2023/01/05 13:37:57;;;;;;;15.80;2.93;;;17.20;78.20;;;;;;5054790;28;20183;-72
2023/01/05 13:40:51;;;;;;;11.43;3.13;;;17.20;78.20;;;;;;5054242;28;20182;-71
2023/01/05 13:43:24;;;;;;;10.53;2.93;;;17.10;78.20;;;;;;5050391;28;20643;-72
2023/01/05 13:46:10;;;;;;;13.10;3.10;;;17.10;78.20;;;;;;5054098;28;20258;-72